METAR Data
IDs: Format: Raw Decoded Include TAF

Data at: 2255 UTC 25 Oct 2021

PAWI 252246Z AUTO 07014KT 1SM -SN BR OVC024 M03/M04 A2925 RMK AO2 P0000 T10331044 TSNO $
PAWI 252234Z AUTO 07014KT 3/4SM -SN BR OVC026 M03/M04 A2925 RMK AO2 P0000 T10331044 TSNO $
PAWI 252225Z AUTO 07013KT 1 1/4SM -SN BR OVC032 M03/M04 A2925 RMK AO2 P0000 T10331044 TSNO $
PAWI 252212Z AUTO 07014KT 2SM -SN BR BKN042 BKN049 OVC070 M03/M05 A2925 RMK AO2 P0000 T10331050 TSNO $
PAWI 252153Z AUTO 07012KT 3SM -SN BR M03/M04 A2925 RMK AO2 SNB43 SLP905 P0000 T10331044 TSNO $
PAWI 252053Z AUTO 08013KT 6SM BR FEW007 OVC065 M03/M04 A2925 RMK AO2 SNB37E49 SLP906 P0000 60000 T10331044 56004 TSNO
PAWI 252050Z AUTO 08012KT 5SM BR SCT007 OVC065 M03/M05 A2925 RMK AO2 SNB37E49 P0000 TSNO
PAWI 251953Z AUTO 08013KT 10SM OVC009 M03/M05 A2926 RMK AO2 CIG 006V013 SLP908 T10331050 TSNO
PAWI 251945Z AUTO 08013KT 6SM BR OVC009 M03/M05 A2926 RMK AO2 CIG 006V013 T10331050 TSNO
PAWI 251930Z AUTO 08014KT 10SM OVC010 M03/M05 A2926 RMK AO2 CIG 006V014 T10331050 TSNO
PAWI 251853Z AUTO 09014KT 6SM BR OVC007 M03/M05 A2926 RMK AO2 CIG 007V011 SLP909 T10331050 TSNO
PAWI 251753Z AUTO 09020KT 10SM OVC007 M03/M05 A2926 RMK AO2 UPE00 SLP910 P0000 60000 T10331050 11028 21033 56005 TSNO
PAWI 251653Z AUTO 09017KT 4SM UP BR OVC005 M03/M04 A2927 RMK AO2 PK WND 09026/1615 UPB16SNB30E40B42E43 SLP911 P0000 T10281044 TSNO
PAWI 251553Z AUTO 09019KT 10SM OVC006 M03/M04 A2927 RMK AO2 SLP911 T10331044 TSNO $
PAWI 251453Z AUTO 09018KT 10SM OVC007 M03/M04 A2928 RMK AO2 SLP915 T10331044 56007 TSNO $
PAWI 251353Z AUTO 10019KT 10SM OVC007 M03/M04 A2928 RMK AO2 SLP916 T10331044 TSNO $
PAWI 251253Z AUTO 09018KT 10SM OVC006 M03/M04 A2929 RMK AO2 SLP920 T10331044 TSNO $
PAWI 251153Z AUTO 09018KT 10SM OVC007 M03/M05 A2930 RMK AO2 SLP922 60000 T10331050 11028 21039 58007 TSNO $
PAWI 251053Z AUTO 08017KT 10SM OVC007 M03/M04 A2931 RMK AO2 SLP926 T10281044 TSNO $
PAWI 251026Z AUTO 08014KT 10SM OVC005 M03/M04 A2931 RMK AO2 T10281044 TSNO $
PAWI 250953Z AUTO 07015KT 9SM OVC004 M03/M04 A2932 RMK AO2 SLP930 T10331044 TSNO $
PAWI 250902Z AUTO 07015KT 10SM BKN005 OVC027 M03/M04 A2933 RMK AO2 T10331044 TSNO $
PAWI 250853Z AUTO 07015KT 10SM SCT005 OVC027 M03/M04 A2933 RMK AO2 SLP933 60000 T10331044 410221044 58006 TSNO $
PAWI 250845Z AUTO 07015KT 10SM SCT005 OVC027 M03/M04 A2933 RMK AO2 T10331044 TSNO $
PAWI 250753Z AUTO 06013KT 10SM BKN024 OVC030 M03/M05 A2934 RMK AO2 SLP935 T10331050 TSNO $
PAWI 250702Z AUTO 08013KT 8SM SCT004 OVC023 M03/M05 A2935 RMK AO2 T10331050 TSNO $
PAWI 250653Z AUTO 08015KT 6SM BR BKN005 OVC022 M03/M05 A2935 RMK AO2 SNE0557B37E52 SLP939 P0000 T10331050 TSNO $
PAWI 250648Z AUTO 08014KT 7SM -SN BKN005 OVC021 M03/M05 A2935 RMK AO2 SNE0557B37 P0000 TSNO $
PAWI 250638Z AUTO 08014KT 9SM -SN SCT005 OVC021 M03/M05 A2935 RMK AO2 SNE0557B37 P0000 T10331050 TSNO $
PAWI 250553Z AUTO 07013KT 4SM -SN BR BKN025 OVC044 M04/M06 A2936 RMK AO2 SLP944 P0000 60000 T10391056 11028 21044 56013 TSNO $
PAWI 250523Z AUTO 07011KT 4SM -SN BR BKN027 BKN048 OVC070 M04/M06 A2937 RMK AO2 P0000 T10391056 TSNO $
PAWI 250500Z AUTO 06011KT 9SM -SN FEW019 BKN070 OVC085 M04/M06 A2937 RMK AO2 P0000 T10441056 TSNO $
PAWI 250453Z AUTO 06012KT 9SM -SN FEW019 BKN029 OVC110 M04/M06 A2937 RMK AO2 SLP947 P0000 T10441056 TSNO $
PAWI 250353Z AUTO 06010KT 7SM -SN OVC090 M04/M05 A2938 RMK AO2 SLP951 P0000 T10391050 TSNO $
PAWI 250253Z AUTO 07010KT 3SM -SN BR BKN030 OVC039 M03/M05 A2940 RMK AO2 SLP957 P0000 60000 T10331050 56006 TSNO $
PAWI 250153Z AUTO 07010KT 3SM -SN BR BKN037 OVC050 M03/M05 A2941 RMK AO2 SNB11 SLP959 P0000 T10331050 TSNO $
PAWI 250151Z AUTO 07009KT 2 1/2SM -SN BR BKN037 OVC050 M03/M05 A2941 RMK AO2 SNB11 P0000 TSNO $
PAWI 250129Z AUTO 07009KT 5SM -SN BR FEW020 BKN040 OVC050 M03/M04 A2941 RMK AO2 SNB11 P0000 T10331044 TSNO $
PAWI 250053Z AUTO 08009KT 10SM BKN017 OVC030 M03/M04 A2942 RMK AO2 SLP962 T10281044 TSNO $
PAWI 242353Z AUTO 08009KT 10SM FEW014 OVC031 M02/M04 A2942 RMK AO2 SLP965 60000 T10221039 11022 21028 TSNO $
PAWI 242304Z AUTO 08009KT 7SM BKN002 OVC008 M03/M04 A2944 RMK AO2 T10281039 TSNO $
PAWI 242253Z AUTO 08009KT 2SM BR BKN002 OVC016 M03/M04 A2944 RMK AO2 SNB37E48 SLP969 P0000 T10281039 TSNO $
PAWI 242245Z AUTO 07007KT 2SM -SN BR BKN004 OVC018 M03/M04 A2944 RMK AO2 SNB37 P0000 T10281039 TSNO $
PAWI 242238Z AUTO 07007KT 2 1/2SM -SN BR BKN003 BKN016 OVC022 M03/M04 A2944 RMK AO2 VIS 1V5 SNB37 P0000 T10281039 TSNO $
PAWI 242221Z AUTO 05007KT 10SM FEW003 OVC023 M03/M04 A2944 RMK AO2 T10281044 TSNO $
PAWI 242153Z AUTO 05008KT 10SM BKN024 BKN030 OVC036 M03/M04 A2945 RMK AO2 SLP972 T10281044 TSNO $
PAWI 242053Z AUTO 05005KT 10SM OVC020 M02/M04 A2945 RMK AO2 SLP973 T10221044 TSNO $
PAWI 241953Z AUTO 04006KT 10SM OVC018 M03/M04 A2946 RMK AO2 SLP976 T10281044 TSNO $
PAWI 241853Z AUTO 04006KT 10SM OVC017 M03/M04 A2946 RMK AO2 SLP978 T10281044 TSNO $
PAWI 241845Z AUTO 04006KT 10SM OVC015 M03/M04 A2946 RMK AO2 T10281044 TSNO $
PAWI 241824Z AUTO 04007KT 10SM BKN014 BKN019 OVC028 M03/M04 A2946 RMK AO2 T10281044 TSNO $
PAWI 241753Z AUTO 04007KT 10SM BKN018 OVC026 M02/M04 A2947 RMK AO2 SLP979 T10221039 11022 21022 58002 TSNO $
PAWI 241653Z AUTO 04007KT 10SM OVC015 M02/M04 A2947 RMK AO2 SLP981 T10221039 TSNO $
PAWI 241553Z AUTO 03009KT 10SM OVC013 M02/M04 A2947 RMK AO2 SLP981 T10221039 TSNO $
PAWI 241551Z AUTO 03009KT 10SM OVC013 M02/M04 A2947 RMK AO2 TSNO $
PAWI 241505Z AUTO 03008KT 10SM FEW009 SCT012 OVC019 M02/M04 A2947 RMK AO2 T10221039 TSNO $
PAWI 241453Z AUTO 03008KT 10SM BKN012 OVC019 M02/M04 A2947 RMK AO2 SLP982 T10221039 50001 TSNO $
PAWI 241442Z AUTO 02007KT 10SM BKN012 OVC017 M02/M04 A2947 RMK AO2 T10221039 TSNO $
PAWI 241353Z AUTO 03007KT 9SM OVC015 M02/M04 A2948 RMK AO2 SLP983 T10221039 TSNO $
PAWI 241345Z AUTO 02007KT 9SM OVC015 M02/M04 A2948 RMK AO2 T10221039 TSNO $
PAWI 241253Z AUTO 03007KT 10SM OVC011 M02/M03 A2948 RMK AO2 SLP983 T10221033 TSNO $
PAWI 241153Z AUTO 01006KT 10SM OVC010 M02/M04 A2947 RMK AO2 SLP980 60000 T10221039 11022 21022 53004 TSNO $